sensor_id;sensor_type;location;lat;lon;timestamp;P1;durP1;ratioP1;P2;durP2;ratioP2
30173;SDS011;16985;50.814;8.530;2022-11-12T00:02:29;10.05;;;7.00;;
30173;SDS011;16985;50.814;8.530;2022-11-12T00:05:14;10.40;;;6.50;;
30173;SDS011;16985;50.814;8.530;2022-11-12T00:07:58;8.43;;;6.10;;
30173;SDS011;16985;50.814;8.530;2022-11-12T00:10:45;9.40;;;6.97;;
30173;SDS011;16985;50.814;8.530;2022-11-12T00:13:33;8.65;;;5.93;;
30173;SDS011;16985;50.814;8.530;2022-11-12T00:16:17;9.23;;;6.20;;
30173;SDS011;16985;50.814;8.530;2022-11-12T00:19:02;13.55;;;7.53;;
30173;SDS011;16985;50.814;8.530;2022-11-12T00:21:46;10.82;;;7.63;;
30173;SDS011;16985;50.814;8.530;2022-11-12T00:24:31;9.70;;;6.28;;
30173;SDS011;16985;50.814;8.530;2022-11-12T00:27:15;8.55;;;6.40;;
30173;SDS011;16985;50.814;8.530;2022-11-12T00:30:00;7.53;;;6.00;;
30173;SDS011;16985;50.814;8.530;2022-11-12T00:32:44;8.43;;;5.75;;
30173;SDS011;16985;50.814;8.530;2022-11-12T00:35:29;7.13;;;5.93;;
30173;SDS011;16985;50.814;8.530;2022-11-12T00:38:15;9.68;;;6.25;;
30173;SDS011;16985;50.814;8.530;2022-11-12T00:41:00;7.95;;;5.55;;
30173;SDS011;16985;50.814;8.530;2022-11-12T00:43:44;7.82;;;6.05;;
30173;SDS011;16985;50.814;8.530;2022-11-12T00:46:29;8.07;;;5.57;;
30173;SDS011;16985;50.814;8.530;2022-11-12T00:49:14;14.05;;;5.43;;
30173;SDS011;16985;50.814;8.530;2022-11-12T00:51:58;6.40;;;5.13;;
30173;SDS011;16985;50.814;8.530;2022-11-12T00:54:43;8.15;;;6.70;;
30173;SDS011;16985;50.814;8.530;2022-11-12T00:57:27;7.68;;;5.35;;
30173;SDS011;16985;50.814;8.530;2022-11-12T01:00:14;5.93;;;4.68;;
30173;SDS011;16985;50.814;8.530;2022-11-12T01:03:00;7.88;;;4.82;;
30173;SDS011;16985;50.814;8.530;2022-11-12T01:05:45;5.43;;;4.50;;
30173;SDS011;16985;50.814;8.530;2022-11-12T01:08:30;5.20;;;4.70;;
30173;SDS011;16985;50.814;8.530;2022-11-12T01:11:18;5.80;;;4.53;;
30173;SDS011;16985;50.814;8.530;2022-11-12T01:14:08;5.72;;;4.57;;
30173;SDS011;16985;50.814;8.530;2022-11-12T01:16:53;6.07;;;5.20;;
30173;SDS011;16985;50.814;8.530;2022-11-12T01:19:38;6.20;;;4.70;;
30173;SDS011;16985;50.814;8.530;2022-11-12T01:22:23;6.28;;;4.72;;
30173;SDS011;16985;50.814;8.530;2022-11-12T01:25:07;5.03;;;4.05;;
30173;SDS011;16985;50.814;8.530;2022-11-12T01:27:52;5.70;;;4.22;;
30173;SDS011;16985;50.814;8.530;2022-11-12T01:30:36;5.32;;;4.30;;
30173;SDS011;16985;50.814;8.530;2022-11-12T01:33:21;5.28;;;4.18;;
30173;SDS011;16985;50.814;8.530;2022-11-12T01:36:05;5.05;;;4.55;;
30173;SDS011;16985;50.814;8.530;2022-11-12T01:38:50;4.90;;;3.92;;
30173;SDS011;16985;50.814;8.530;2022-11-12T01:41:37;4.90;;;3.88;;
30173;SDS011;16985;50.814;8.530;2022-11-12T01:44:24;4.30;;;3.78;;
30173;SDS011;16985;50.814;8.530;2022-11-12T01:53:12;4.25;;;3.33;;
30173;SDS011;16985;50.814;8.530;2022-11-12T01:55:57;4.40;;;3.55;;
30173;SDS011;16985;50.814;8.530;2022-11-12T01:58:43;3.58;;;3.28;;
30173;SDS011;16985;50.814;8.530;2022-11-12T02:01:30;4.05;;;3.65;;
30173;SDS011;16985;50.814;8.530;2022-11-12T02:04:14;4.47;;;4.05;;
30173;SDS011;16985;50.814;8.530;2022-11-12T02:06:59;3.70;;;3.40;;
30173;SDS011;16985;50.814;8.530;2022-11-12T02:09:45;4.20;;;3.45;;
30173;SDS011;16985;50.814;8.530;2022-11-12T02:12:30;5.75;;;4.45;;
30173;SDS011;16985;50.814;8.530;2022-11-12T02:15:33;5.90;;;3.63;;
30173;SDS011;16985;50.814;8.530;2022-11-12T02:18:18;6.50;;;4.97;;
30173;SDS011;16985;50.814;8.530;2022-11-12T02:21:03;4.53;;;4.10;;
30173;SDS011;16985;50.814;8.530;2022-11-12T02:23:58;5.05;;;4.00;;
30173;SDS011;16985;50.814;8.530;2022-11-12T02:26:48;4.72;;;3.75;;
30173;SDS011;16985;50.814;8.530;2022-11-12T02:29:36;4.53;;;3.80;;
30173;SDS011;16985;50.814;8.530;2022-11-12T02:32:29;5.53;;;3.80;;
30173;SDS011;16985;50.814;8.530;2022-11-12T02:35:13;5.43;;;4.10;;
30173;SDS011;16985;50.814;8.530;2022-11-12T02:37:57;4.78;;;4.18;;
30173;SDS011;16985;50.814;8.530;2022-11-12T02:40:42;4.70;;;3.95;;
30173;SDS011;16985;50.814;8.530;2022-11-12T02:43:26;6.78;;;4.18;;
30173;SDS011;16985;50.814;8.530;2022-11-12T02:46:13;4.82;;;4.32;;
30173;SDS011;16985;50.814;8.530;2022-11-12T02:48:57;6.28;;;4.65;;
30173;SDS011;16985;50.814;8.530;2022-11-12T02:51:42;6.30;;;5.28;;
30173;SDS011;16985;50.814;8.530;2022-11-12T02:54:27;7.13;;;5.00;;
30173;SDS011;16985;50.814;8.530;2022-11-12T02:57:11;6.90;;;4.82;;
30173;SDS011;16985;50.814;8.530;2022-11-12T02:59:56;5.65;;;4.55;;
30173;SDS011;16985;50.814;8.530;2022-11-12T03:02:40;6.03;;;3.90;;
30173;SDS011;16985;50.814;8.530;2022-11-12T03:05:25;5.43;;;4.45;;
30173;SDS011;16985;50.814;8.530;2022-11-12T03:08:14;5.35;;;4.40;;
30173;SDS011;16985;50.814;8.530;2022-11-12T03:11:04;5.60;;;4.75;;
30173;SDS011;16985;50.814;8.530;2022-11-12T03:13:54;5.63;;;4.22;;
30173;SDS011;16985;50.814;8.530;2022-11-12T03:16:38;4.57;;;3.97;;
30173;SDS011;16985;50.814;8.530;2022-11-12T03:19:23;5.10;;;3.83;;
30173;SDS011;16985;50.814;8.530;2022-11-12T03:22:07;5.35;;;3.85;;
30173;SDS011;16985;50.814;8.530;2022-11-12T03:24:52;4.22;;;3.70;;
30173;SDS011;16985;50.814;8.530;2022-11-12T03:27:36;4.78;;;3.85;;
30173;SDS011;16985;50.814;8.530;2022-11-12T03:30:21;5.28;;;3.85;;
30173;SDS011;16985;50.814;8.530;2022-11-12T03:33:06;5.63;;;3.90;;
30173;SDS011;16985;50.814;8.530;2022-11-12T03:35:52;5.45;;;3.63;;
30173;SDS011;16985;50.814;8.530;2022-11-12T03:38:37;4.70;;;3.92;;
30173;SDS011;16985;50.814;8.530;2022-11-12T03:41:21;5.15;;;3.97;;
30173;SDS011;16985;50.814;8.530;2022-11-12T03:44:06;4.38;;;3.97;;
30173;SDS011;16985;50.814;8.530;2022-11-12T03:46:50;6.72;;;3.95;;
30173;SDS011;16985;50.814;8.530;2022-11-12T03:49:34;5.32;;;3.58;;
30173;SDS011;16985;50.814;8.530;2022-11-12T03:52:18;4.80;;;3.92;;
30173;SDS011;16985;50.814;8.530;2022-11-12T03:55:04;6.22;;;4.45;;
30173;SDS011;16985;50.814;8.530;2022-11-12T03:57:50;4.55;;;3.92;;
30173;SDS011;16985;50.814;8.530;2022-11-12T04:00:36;5.68;;;4.40;;
30173;SDS011;16985;50.814;8.530;2022-11-12T04:03:20;4.95;;;4.30;;
30173;SDS011;16985;50.814;8.530;2022-11-12T04:06:05;4.80;;;3.88;;
30173;SDS011;16985;50.814;8.530;2022-11-12T04:09:09;4.60;;;4.10;;
30173;SDS011;16985;50.814;8.530;2022-11-12T04:11:53;3.70;;;3.35;;
30173;SDS011;16985;50.814;8.530;2022-11-12T04:14:38;3.97;;;3.58;;
30173;SDS011;16985;50.814;8.530;2022-11-12T04:17:22;5.07;;;3.85;;
30173;SDS011;16985;50.814;8.530;2022-11-12T04:20:25;4.75;;;4.00;;
30173;SDS011;16985;50.814;8.530;2022-11-12T04:23:28;6.13;;;4.63;;
30173;SDS011;16985;50.814;8.530;2022-11-12T04:26:13;5.50;;;4.25;;
30173;SDS011;16985;50.814;8.530;2022-11-12T04:29:06;5.82;;;4.40;;
30173;SDS011;16985;50.814;8.530;2022-11-12T04:32:09;5.75;;;3.80;;
30173;SDS011;16985;50.814;8.530;2022-11-12T04:34:54;5.13;;;4.10;;
30173;SDS011;16985;50.814;8.530;2022-11-12T04:37:39;4.35;;;3.90;;
30173;SDS011;16985;50.814;8.530;2022-11-12T04:40:30;4.80;;;3.90;;
30173;SDS011;16985;50.814;8.530;2022-11-12T04:43:33;3.78;;;3.42;;
30173;SDS011;16985;50.814;8.530;2022-11-12T04:46:37;5.45;;;4.00;;
30173;SDS011;16985;50.814;8.530;2022-11-12T04:49:22;4.40;;;4.00;;
30173;SDS011;16985;50.814;8.530;2022-11-12T04:52:07;4.70;;;4.03;;
30173;SDS011;16985;50.814;8.530;2022-11-12T04:54:52;4.63;;;3.75;;
30173;SDS011;16985;50.814;8.530;2022-11-12T04:57:37;4.20;;;3.72;;
30173;SDS011;16985;50.814;8.530;2022-11-12T05:00:22;4.10;;;3.70;;
30173;SDS011;16985;50.814;8.530;2022-11-12T05:03:06;4.55;;;3.83;;
30173;SDS011;16985;50.814;8.530;2022-11-12T05:05:51;5.70;;;4.65;;
30173;SDS011;16985;50.814;8.530;2022-11-12T05:08:35;4.75;;;4.03;;
30173;SDS011;16985;50.814;8.530;2022-11-12T05:11:20;4.72;;;3.72;;
30173;SDS011;16985;50.814;8.530;2022-11-12T05:14:05;5.95;;;4.22;;
30173;SDS011;16985;50.814;8.530;2022-11-12T05:16:50;4.07;;;3.67;;
30173;SDS011;16985;50.814;8.530;2022-11-12T05:19:34;5.68;;;4.20;;
30173;SDS011;16985;50.814;8.530;2022-11-12T05:22:19;4.97;;;4.00;;
30173;SDS011;16985;50.814;8.530;2022-11-12T05:25:04;5.50;;;4.10;;
30173;SDS011;16985;50.814;8.530;2022-11-12T05:27:50;4.25;;;3.67;;
30173;SDS011;16985;50.814;8.530;2022-11-12T05:30:35;4.53;;;3.80;;
30173;SDS011;16985;50.814;8.530;2022-11-12T05:33:19;4.72;;;3.83;;
30173;SDS011;16985;50.814;8.530;2022-11-12T05:36:04;4.68;;;4.03;;
30173;SDS011;16985;50.814;8.530;2022-11-12T05:38:49;4.40;;;3.90;;
30173;SDS011;16985;50.814;8.530;2022-11-12T05:41:34;3.50;;;3.20;;
30173;SDS011;16985;50.814;8.530;2022-11-12T05:44:19;4.97;;;3.85;;
30173;SDS011;16985;50.814;8.530;2022-11-12T05:47:04;4.70;;;3.97;;
30173;SDS011;16985;50.814;8.530;2022-11-12T05:49:49;4.93;;;3.92;;
30173;SDS011;16985;50.814;8.530;2022-11-12T05:52:33;4.80;;;3.95;;
30173;SDS011;16985;50.814;8.530;2022-11-12T05:55:18;4.35;;;3.60;;
30173;SDS011;16985;50.814;8.530;2022-11-12T05:58:03;4.03;;;3.65;;
30173;SDS011;16985;50.814;8.530;2022-11-12T06:00:48;5.80;;;4.85;;
30173;SDS011;16985;50.814;8.530;2022-11-12T06:03:33;7.63;;;4.70;;
30173;SDS011;16985;50.814;8.530;2022-11-12T06:06:18;6.10;;;5.03;;
30173;SDS011;16985;50.814;8.530;2022-11-12T06:09:03;5.15;;;4.38;;
30173;SDS011;16985;50.814;8.530;2022-11-12T06:11:48;6.38;;;5.13;;
30173;SDS011;16985;50.814;8.530;2022-11-12T06:14:32;8.00;;;5.00;;
30173;SDS011;16985;50.814;8.530;2022-11-12T06:17:17;6.88;;;5.00;;
30173;SDS011;16985;50.814;8.530;2022-11-12T06:20:02;9.23;;;5.85;;
30173;SDS011;16985;50.814;8.530;2022-11-12T06:22:47;7.97;;;5.63;;
30173;SDS011;16985;50.814;8.530;2022-11-12T06:25:32;9.88;;;6.00;;
30173;SDS011;16985;50.814;8.530;2022-11-12T06:28:17;7.50;;;5.75;;
30173;SDS011;16985;50.814;8.530;2022-11-12T06:31:01;7.35;;;5.78;;
30173;SDS011;16985;50.814;8.530;2022-11-12T06:33:46;6.45;;;5.18;;
30173;SDS011;16985;50.814;8.530;2022-11-12T06:36:31;7.22;;;5.00;;
30173;SDS011;16985;50.814;8.530;2022-11-12T06:39:15;6.15;;;5.18;;
30173;SDS011;16985;50.814;8.530;2022-11-12T06:42:00;5.65;;;4.75;;
30173;SDS011;16985;50.814;8.530;2022-11-12T06:44:45;8.80;;;5.63;;
30173;SDS011;16985;50.814;8.530;2022-11-12T06:47:29;8.55;;;5.75;;
30173;SDS011;16985;50.814;8.530;2022-11-12T06:50:14;9.50;;;5.88;;
30173;SDS011;16985;50.814;8.530;2022-11-12T06:52:59;11.00;;;6.07;;
30173;SDS011;16985;50.814;8.530;2022-11-12T06:55:43;11.98;;;6.10;;
30173;SDS011;16985;50.814;8.530;2022-11-12T06:58:28;8.90;;;6.25;;
30173;SDS011;16985;50.814;8.530;2022-11-12T07:01:14;10.32;;;6.38;;
30173;SDS011;16985;50.814;8.530;2022-11-12T07:04:00;11.45;;;6.00;;
30173;SDS011;16985;50.814;8.530;2022-11-12T07:06:44;8.80;;;5.97;;
30173;SDS011;16985;50.814;8.530;2022-11-12T07:09:29;11.50;;;6.68;;
30173;SDS011;16985;50.814;8.530;2022-11-12T07:12:13;10.25;;;6.65;;
30173;SDS011;16985;50.814;8.530;2022-11-12T07:14:58;9.70;;;5.75;;
30173;SDS011;16985;50.814;8.530;2022-11-12T07:17:43;9.13;;;5.90;;
30173;SDS011;16985;50.814;8.530;2022-11-12T07:20:28;10.52;;;7.00;;
30173;SDS011;16985;50.814;8.530;2022-11-12T07:23:13;8.40;;;6.30;;
30173;SDS011;16985;50.814;8.530;2022-11-12T07:25:58;8.73;;;6.65;;
30173;SDS011;16985;50.814;8.530;2022-11-12T07:28:47;9.63;;;5.93;;
30173;SDS011;16985;50.814;8.530;2022-11-12T07:31:34;10.50;;;6.03;;
30173;SDS011;16985;50.814;8.530;2022-11-12T07:34:18;9.20;;;5.88;;
30173;SDS011;16985;50.814;8.530;2022-11-12T07:37:03;7.93;;;5.80;;
30173;SDS011;16985;50.814;8.530;2022-11-12T07:39:47;8.77;;;6.25;;
30173;SDS011;16985;50.814;8.530;2022-11-12T07:42:32;8.85;;;6.82;;
30173;SDS011;16985;50.814;8.530;2022-11-12T07:45:17;9.85;;;6.53;;
30173;SDS011;16985;50.814;8.530;2022-11-12T07:48:02;9.23;;;6.45;;
30173;SDS011;16985;50.814;8.530;2022-11-12T07:50:47;8.77;;;6.18;;
30173;SDS011;16985;50.814;8.530;2022-11-12T07:53:32;14.65;;;5.22;;
30173;SDS011;16985;50.814;8.530;2022-11-12T07:56:18;9.95;;;6.43;;
30173;SDS011;16985;50.814;8.530;2022-11-12T07:59:04;8.27;;;6.25;;
30173;SDS011;16985;50.814;8.530;2022-11-12T08:01:50;9.57;;;6.05;;
30173;SDS011;16985;50.814;8.530;2022-11-12T08:04:34;10.45;;;6.50;;
30173;SDS011;16985;50.814;8.530;2022-11-12T08:07:19;11.05;;;7.10;;
30173;SDS011;16985;50.814;8.530;2022-11-12T08:10:04;13.10;;;9.00;;
30173;SDS011;16985;50.814;8.530;2022-11-12T08:12:49;13.25;;;9.45;;
30173;SDS011;16985;50.814;8.530;2022-11-12T08:15:33;13.02;;;9.32;;
30173;SDS011;16985;50.814;8.530;2022-11-12T08:18:18;13.93;;;8.82;;
30173;SDS011;16985;50.814;8.530;2022-11-12T08:21:03;15.10;;;9.13;;
30173;SDS011;16985;50.814;8.530;2022-11-12T08:23:50;10.68;;;7.55;;
30173;SDS011;16985;50.814;8.530;2022-11-12T08:26:35;11.00;;;7.10;;
30173;SDS011;16985;50.814;8.530;2022-11-12T08:29:19;8.95;;;7.30;;
30173;SDS011;16985;50.814;8.530;2022-11-12T08:32:05;11.75;;;8.50;;
30173;SDS011;16985;50.814;8.530;2022-11-12T08:34:50;12.13;;;7.68;;
30173;SDS011;16985;50.814;8.530;2022-11-12T08:37:34;10.35;;;7.05;;
30173;SDS011;16985;50.814;8.530;2022-11-12T08:40:19;12.13;;;8.10;;
30173;SDS011;16985;50.814;8.530;2022-11-12T08:43:04;13.40;;;9.45;;
30173;SDS011;16985;50.814;8.530;2022-11-12T08:45:51;13.07;;;9.38;;
30173;SDS011;16985;50.814;8.530;2022-11-12T08:48:36;14.48;;;9.25;;
30173;SDS011;16985;50.814;8.530;2022-11-12T08:51:22;12.32;;;9.13;;
30173;SDS011;16985;50.814;8.530;2022-11-12T08:54:07;13.68;;;9.30;;
30173;SDS011;16985;50.814;8.530;2022-11-12T08:56:52;15.50;;;9.75;;
30173;SDS011;16985;50.814;8.530;2022-11-12T08:59:37;14.77;;;9.00;;
30173;SDS011;16985;50.814;8.530;2022-11-12T09:02:21;14.00;;;8.82;;
30173;SDS011;16985;50.814;8.530;2022-11-12T09:05:06;12.48;;;8.27;;
30173;SDS011;16985;50.814;8.530;2022-11-12T09:08:01;11.45;;;8.43;;
30173;SDS011;16985;50.814;8.530;2022-11-12T09:10:52;15.43;;;8.23;;
30173;SDS011;16985;50.814;8.530;2022-11-12T09:13:36;10.63;;;7.57;;
30173;SDS011;16985;50.814;8.530;2022-11-12T09:16:21;12.85;;;9.05;;
30173;SDS011;16985;50.814;8.530;2022-11-12T09:19:06;15.10;;;8.00;;
30173;SDS011;16985;50.814;8.530;2022-11-12T09:21:51;10.13;;;7.55;;
30173;SDS011;16985;50.814;8.530;2022-11-12T09:24:35;12.02;;;7.72;;
30173;SDS011;16985;50.814;8.530;2022-11-12T09:27:20;9.32;;;7.03;;
30173;SDS011;16985;50.814;8.530;2022-11-12T09:30:05;10.00;;;7.07;;
30173;SDS011;16985;50.814;8.530;2022-11-12T09:32:55;10.73;;;7.47;;
30173;SDS011;16985;50.814;8.530;2022-11-12T09:35:41;9.60;;;6.95;;
30173;SDS011;16985;50.814;8.530;2022-11-12T09:38:26;9.68;;;6.70;;
30173;SDS011;16985;50.814;8.530;2022-11-12T09:44:21;11.38;;;6.90;;
30173;SDS011;16985;50.814;8.530;2022-11-12T09:47:18;8.80;;;6.05;;
30173;SDS011;16985;50.814;8.530;2022-11-12T09:50:19;10.73;;;6.40;;
30173;SDS011;16985;50.814;8.530;2022-11-12T09:56:04;26.33;;;23.13;;
30173;SDS011;16985;50.814;8.530;2022-11-12T09:58:50;12.85;;;10.77;;
30173;SDS011;16985;50.814;8.530;2022-11-12T10:04:39;19.83;;;9.65;;
30173;SDS011;16985;50.814;8.530;2022-11-12T10:08:15;19.83;;;8.45;;
30173;SDS011;16985;50.814;8.530;2022-11-12T10:18:49;27.17;;;10.70;;
30173;SDS011;16985;50.814;8.530;2022-11-12T10:21:57;15.13;;;9.40;;
30173;SDS011;16985;50.814;8.530;2022-11-12T10:25:39;25.23;;;10.23;;
30173;SDS011;16985;50.814;8.530;2022-11-12T10:28:37;16.10;;;9.25;;
30173;SDS011;16985;50.814;8.530;2022-11-12T10:31:28;15.40;;;9.40;;
30173;SDS011;16985;50.814;8.530;2022-11-12T10:34:14;12.82;;;9.48;;
30173;SDS011;16985;50.814;8.530;2022-11-12T10:37:06;14.55;;;9.38;;
30173;SDS011;16985;50.814;8.530;2022-11-12T10:40:30;11.68;;;9.15;;
30173;SDS011;16985;50.814;8.530;2022-11-12T10:46:11;14.05;;;8.45;;
30173;SDS011;16985;50.814;8.530;2022-11-12T10:51:59;22.33;;;9.95;;
30173;SDS011;16985;50.814;8.530;2022-11-12T10:54:43;17.23;;;12.48;;
30173;SDS011;16985;50.814;8.530;2022-11-12T10:57:28;21.55;;;14.43;;
30173;SDS011;16985;50.814;8.530;2022-11-12T11:03:00;68.15;;;38.25;;
30173;SDS011;16985;50.814;8.530;2022-11-12T11:11:25;48.35;;;29.58;;
30173;SDS011;16985;50.814;8.530;2022-11-12T11:17:14;34.67;;;22.10;;
30173;SDS011;16985;50.814;8.530;2022-11-12T11:20:02;27.05;;;18.20;;
30173;SDS011;16985;50.814;8.530;2022-11-12T11:23:00;23.35;;;15.20;;
30173;SDS011;16985;50.814;8.530;2022-11-12T11:25:51;16.38;;;10.90;;
30173;SDS011;16985;50.814;8.530;2022-11-12T11:28:46;13.80;;;10.90;;
30173;SDS011;16985;50.814;8.530;2022-11-12T11:35:18;12.02;;;9.40;;
30173;SDS011;16985;50.814;8.530;2022-11-12T11:54:48;15.13;;;9.38;;
30173;SDS011;16985;50.814;8.530;2022-11-12T12:12:00;15.57;;;9.30;;
30173;SDS011;16985;50.814;8.530;2022-11-12T12:15:10;12.32;;;8.77;;
30173;SDS011;16985;50.814;8.530;2022-11-12T12:22:39;12.98;;;9.40;;
30173;SDS011;16985;50.814;8.530;2022-11-12T12:25:37;14.60;;;9.13;;
30173;SDS011;16985;50.814;8.530;2022-11-12T12:31:51;14.18;;;9.98;;
30173;SDS011;16985;50.814;8.530;2022-11-12T12:35:01;13.90;;;9.55;;
30173;SDS011;16985;50.814;8.530;2022-11-12T12:44:10;11.63;;;8.52;;
30173;SDS011;16985;50.814;8.530;2022-11-12T12:46:55;11.07;;;8.93;;
30173;SDS011;16985;50.814;8.530;2022-11-12T12:49:43;13.10;;;9.07;;
30173;SDS011;16985;50.814;8.530;2022-11-12T12:52:29;15.60;;;10.10;;
30173;SDS011;16985;50.814;8.530;2022-11-12T12:55:33;14.07;;;10.18;;
30173;SDS011;16985;50.814;8.530;2022-11-12T12:58:27;12.10;;;9.48;;
30173;SDS011;16985;50.814;8.530;2022-11-12T13:04:08;12.73;;;8.80;;
30173;SDS011;16985;50.814;8.530;2022-11-12T13:06:54;10.23;;;7.85;;
30173;SDS011;16985;50.814;8.530;2022-11-12T13:09:39;11.70;;;7.55;;
30173;SDS011;16985;50.814;8.530;2022-11-12T13:12:50;10.07;;;6.30;;
30173;SDS011;16985;50.814;8.530;2022-11-12T13:16:00;8.40;;;5.83;;
30173;SDS011;16985;50.814;8.530;2022-11-12T13:21:35;7.68;;;5.15;;
30173;SDS011;16985;50.814;8.530;2022-11-12T13:24:54;8.23;;;5.40;;
30173;SDS011;16985;50.814;8.530;2022-11-12T13:28:06;7.85;;;6.15;;
30173;SDS011;16985;50.814;8.530;2022-11-12T13:33:37;7.93;;;6.15;;
30173;SDS011;16985;50.814;8.530;2022-11-12T13:36:23;9.30;;;5.82;;
30173;SDS011;16985;50.814;8.530;2022-11-12T13:39:14;7.32;;;6.00;;
30173;SDS011;16985;50.814;8.530;2022-11-12T13:42:08;6.38;;;4.93;;
30173;SDS011;16985;50.814;8.530;2022-11-12T13:45:17;8.75;;;5.45;;
30173;SDS011;16985;50.814;8.530;2022-11-12T13:48:06;8.57;;;5.88;;
30173;SDS011;16985;50.814;8.530;2022-11-12T13:50:57;10.02;;;6.10;;
30173;SDS011;16985;50.814;8.530;2022-11-12T13:53:46;9.60;;;5.72;;
30173;SDS011;16985;50.814;8.530;2022-11-12T13:56:32;9.40;;;5.97;;
30173;SDS011;16985;50.814;8.530;2022-11-12T13:59:22;9.88;;;5.93;;
30173;SDS011;16985;50.814;8.530;2022-11-12T14:05:15;15.48;;;6.95;;
30173;SDS011;16985;50.814;8.530;2022-11-12T14:08:25;9.07;;;6.15;;
30173;SDS011;16985;50.814;8.530;2022-11-12T14:15:17;10.35;;;8.02;;
30173;SDS011;16985;50.814;8.530;2022-11-12T14:18:14;10.23;;;7.35;;
30173;SDS011;16985;50.814;8.530;2022-11-12T14:21:16;11.55;;;7.93;;
30173;SDS011;16985;50.814;8.530;2022-11-12T14:24:02;14.52;;;8.13;;
30173;SDS011;16985;50.814;8.530;2022-11-12T14:26:47;11.00;;;8.82;;
30173;SDS011;16985;50.814;8.530;2022-11-12T14:29:32;12.75;;;7.65;;
30173;SDS011;16985;50.814;8.530;2022-11-12T14:32:16;12.45;;;8.65;;
30173;SDS011;16985;50.814;8.530;2022-11-12T14:41:08;10.13;;;7.45;;
30173;SDS011;16985;50.814;8.530;2022-11-12T14:43:59;11.85;;;8.45;;
30173;SDS011;16985;50.814;8.530;2022-11-12T14:46:51;11.00;;;8.07;;
30173;SDS011;16985;50.814;8.530;2022-11-12T14:49:40;11.45;;;8.50;;
30173;SDS011;16985;50.814;8.530;2022-11-12T14:52:30;11.20;;;8.20;;
30173;SDS011;16985;50.814;8.530;2022-11-12T14:55:22;14.73;;;9.07;;
30173;SDS011;16985;50.814;8.530;2022-11-12T14:58:11;12.10;;;8.75;;
30173;SDS011;16985;50.814;8.530;2022-11-12T15:00:58;11.95;;;8.38;;
30173;SDS011;16985;50.814;8.530;2022-11-12T15:04:18;14.85;;;8.13;;
30173;SDS011;16985;50.814;8.530;2022-11-12T15:10:30;12.30;;;8.07;;
30173;SDS011;16985;50.814;8.530;2022-11-12T15:13:19;15.07;;;10.05;;
30173;SDS011;16985;50.814;8.530;2022-11-12T15:16:07;17.15;;;10.02;;
30173;SDS011;16985;50.814;8.530;2022-11-12T15:19:00;14.37;;;9.90;;
30173;SDS011;16985;50.814;8.530;2022-11-12T15:21:57;13.23;;;9.35;;
30173;SDS011;16985;50.814;8.530;2022-11-12T15:24:44;12.60;;;9.10;;
30173;SDS011;16985;50.814;8.530;2022-11-12T15:27:34;13.85;;;9.52;;
30173;SDS011;16985;50.814;8.530;2022-11-12T15:30:24;12.32;;;9.18;;
30173;SDS011;16985;50.814;8.530;2022-11-12T15:35:57;10.68;;;8.32;;
30173;SDS011;16985;50.814;8.530;2022-11-12T15:38:47;13.95;;;9.27;;
30173;SDS011;16985;50.814;8.530;2022-11-12T15:41:36;23.02;;;9.80;;
30173;SDS011;16985;50.814;8.530;2022-11-12T15:44:21;14.95;;;9.30;;
30173;SDS011;16985;50.814;8.530;2022-11-12T15:47:07;12.57;;;9.70;;
30173;SDS011;16985;50.814;8.530;2022-11-12T15:50:03;18.65;;;10.25;;
30173;SDS011;16985;50.814;8.530;2022-11-12T15:53:02;13.70;;;10.05;;
30173;SDS011;16985;50.814;8.530;2022-11-12T15:55:47;16.15;;;9.50;;
30173;SDS011;16985;50.814;8.530;2022-11-12T15:58:34;14.88;;;9.73;;
30173;SDS011;16985;50.814;8.530;2022-11-12T16:01:23;14.50;;;9.88;;
30173;SDS011;16985;50.814;8.530;2022-11-12T16:04:09;19.13;;;10.05;;
30173;SDS011;16985;50.814;8.530;2022-11-12T16:06:55;17.65;;;11.65;;
30173;SDS011;16985;50.814;8.530;2022-11-12T16:09:40;15.18;;;11.18;;
30173;SDS011;16985;50.814;8.530;2022-11-12T16:12:24;19.23;;;11.43;;
30173;SDS011;16985;50.814;8.530;2022-11-12T16:15:13;18.60;;;13.07;;
30173;SDS011;16985;50.814;8.530;2022-11-12T16:17:59;22.15;;;14.13;;
30173;SDS011;16985;50.814;8.530;2022-11-12T16:20:44;22.67;;;14.93;;
30173;SDS011;16985;50.814;8.530;2022-11-12T16:23:29;20.88;;;14.38;;
30173;SDS011;16985;50.814;8.530;2022-11-12T16:26:15;22.13;;;15.05;;
30173;SDS011;16985;50.814;8.530;2022-11-12T16:29:13;20.95;;;14.27;;
30173;SDS011;16985;50.814;8.530;2022-11-12T16:31:58;19.40;;;13.38;;
30173;SDS011;16985;50.814;8.530;2022-11-12T16:34:42;21.88;;;14.63;;
30173;SDS011;16985;50.814;8.530;2022-11-12T16:37:27;20.50;;;14.77;;
30173;SDS011;16985;50.814;8.530;2022-11-12T16:40:16;25.13;;;15.23;;
30173;SDS011;16985;50.814;8.530;2022-11-12T16:43:09;22.60;;;15.95;;
30173;SDS011;16985;50.814;8.530;2022-11-12T16:45:54;19.65;;;15.55;;
30173;SDS011;16985;50.814;8.530;2022-11-12T16:48:39;22.25;;;15.52;;
30173;SDS011;16985;50.814;8.530;2022-11-12T16:51:23;27.27;;;16.85;;
30173;SDS011;16985;50.814;8.530;2022-11-12T16:54:08;22.30;;;15.32;;
30173;SDS011;16985;50.814;8.530;2022-11-12T16:56:53;27.85;;;17.48;;
30173;SDS011;16985;50.814;8.530;2022-11-12T16:59:37;28.13;;;18.00;;
30173;SDS011;16985;50.814;8.530;2022-11-12T17:02:22;31.38;;;20.65;;
30173;SDS011;16985;50.814;8.530;2022-11-12T17:05:17;29.65;;;20.95;;
30173;SDS011;16985;50.814;8.530;2022-11-12T17:08:03;30.92;;;20.02;;
30173;SDS011;16985;50.814;8.530;2022-11-12T17:10:48;27.58;;;18.60;;
30173;SDS011;16985;50.814;8.530;2022-11-12T17:13:33;28.90;;;18.67;;
30173;SDS011;16985;50.814;8.530;2022-11-12T17:16:21;24.63;;;18.63;;
30173;SDS011;16985;50.814;8.530;2022-11-12T17:19:05;27.80;;;19.25;;
30173;SDS011;16985;50.814;8.530;2022-11-12T17:21:52;31.63;;;18.25;;
30173;SDS011;16985;50.814;8.530;2022-11-12T17:24:37;24.27;;;17.33;;
30173;SDS011;16985;50.814;8.530;2022-11-12T17:27:21;26.35;;;17.67;;
30173;SDS011;16985;50.814;8.530;2022-11-12T17:30:05;23.83;;;17.13;;
30173;SDS011;16985;50.814;8.530;2022-11-12T17:32:50;29.90;;;17.33;;
30173;SDS011;16985;50.814;8.530;2022-11-12T17:35:35;29.35;;;19.88;;
30173;SDS011;16985;50.814;8.530;2022-11-12T17:38:19;28.55;;;19.23;;
30173;SDS011;16985;50.814;8.530;2022-11-12T17:41:05;30.88;;;19.23;;
30173;SDS011;16985;50.814;8.530;2022-11-12T17:43:59;31.17;;;19.65;;
30173;SDS011;16985;50.814;8.530;2022-11-12T17:46:45;31.33;;;18.23;;
30173;SDS011;16985;50.814;8.530;2022-11-12T17:49:30;29.35;;;19.38;;
30173;SDS011;16985;50.814;8.530;2022-11-12T17:52:15;29.60;;;18.35;;
30173;SDS011;16985;50.814;8.530;2022-11-12T17:54:59;27.40;;;17.63;;
30173;SDS011;16985;50.814;8.530;2022-11-12T17:57:44;29.45;;;19.00;;
30173;SDS011;16985;50.814;8.530;2022-11-12T18:00:28;26.13;;;17.30;;
30173;SDS011;16985;50.814;8.530;2022-11-12T18:03:13;29.95;;;18.60;;
30173;SDS011;16985;50.814;8.530;2022-11-12T18:05:58;25.85;;;15.90;;
30173;SDS011;16985;50.814;8.530;2022-11-12T18:08:43;27.27;;;16.08;;
30173;SDS011;16985;50.814;8.530;2022-11-12T18:11:28;30.00;;;16.90;;
30173;SDS011;16985;50.814;8.530;2022-11-12T18:14:20;26.05;;;15.70;;
30173;SDS011;16985;50.814;8.530;2022-11-12T18:17:05;29.30;;;16.88;;
30173;SDS011;16985;50.814;8.530;2022-11-12T18:19:50;24.20;;;14.68;;
30173;SDS011;16985;50.814;8.530;2022-11-12T18:22:35;26.92;;;14.40;;
30173;SDS011;16985;50.814;8.530;2022-11-12T18:25:19;23.45;;;15.57;;
30173;SDS011;16985;50.814;8.530;2022-11-12T18:28:05;29.35;;;17.15;;
30173;SDS011;16985;50.814;8.530;2022-11-12T18:30:57;29.88;;;17.55;;
30173;SDS011;16985;50.814;8.530;2022-11-12T18:33:46;28.00;;;16.73;;
30173;SDS011;16985;50.814;8.530;2022-11-12T18:36:31;24.95;;;15.38;;
30173;SDS011;16985;50.814;8.530;2022-11-12T18:39:16;30.23;;;17.75;;